sensor_id;sensor_type;location;lat;lon;timestamp;P1;durP1;ratioP1;P2;durP2;ratioP2
23573;SDS011;11965;53.640;10.050;2024-02-26T00:01:52;19.83;;;19.70;;
23573;SDS011;11965;53.640;10.050;2024-02-26T00:04:19;21.30;;;21.01;;
23573;SDS011;11965;53.640;10.050;2024-02-26T00:06:47;20.37;;;20.35;;
23573;SDS011;11965;53.640;10.050;2024-02-26T00:09:15;20.71;;;20.71;;
23573;SDS011;11965;53.640;10.050;2024-02-26T00:11:43;21.46;;;21.37;;
23573;SDS011;11965;53.640;10.050;2024-02-26T00:14:10;20.31;;;20.21;;
23573;SDS011;11965;53.640;10.050;2024-02-26T00:16:39;21.70;;;21.64;;
23573;SDS011;11965;53.640;10.050;2024-02-26T00:19:08;22.77;;;22.29;;
23573;SDS011;11965;53.640;10.050;2024-02-26T00:21:35;21.89;;;21.71;;
23573;SDS011;11965;53.640;10.050;2024-02-26T00:24:01;21.12;;;21.06;;
23573;SDS011;11965;53.640;10.050;2024-02-26T00:26:28;21.11;;;20.89;;
23573;SDS011;11965;53.640;10.050;2024-02-26T00:28:55;19.80;;;19.80;;
23573;SDS011;11965;53.640;10.050;2024-02-26T00:31:22;20.28;;;20.23;;
23573;SDS011;11965;53.640;10.050;2024-02-26T00:33:49;20.35;;;20.34;;
23573;SDS011;11965;53.640;10.050;2024-02-26T00:36:18;20.32;;;20.26;;
23573;SDS011;11965;53.640;10.050;2024-02-26T00:38:45;20.70;;;20.68;;
23573;SDS011;11965;53.640;10.050;2024-02-26T00:41:16;19.68;;;19.67;;
23573;SDS011;11965;53.640;10.050;2024-02-26T00:43:43;19.48;;;19.47;;
23573;SDS011;11965;53.640;10.050;2024-02-26T00:46:10;18.68;;;18.68;;
23573;SDS011;11965;53.640;10.050;2024-02-26T00:48:37;19.49;;;19.49;;
23573;SDS011;11965;53.640;10.050;2024-02-26T00:51:04;19.95;;;19.92;;
23573;SDS011;11965;53.640;10.050;2024-02-26T00:53:34;18.74;;;18.73;;
23573;SDS011;11965;53.640;10.050;2024-02-26T00:56:01;19.16;;;19.09;;
23573;SDS011;11965;53.640;10.050;2024-02-26T00:58:28;18.95;;;18.91;;
23573;SDS011;11965;53.640;10.050;2024-02-26T01:00:55;18.64;;;18.62;;
23573;SDS011;11965;53.640;10.050;2024-02-26T01:03:22;19.92;;;19.56;;
23573;SDS011;11965;53.640;10.050;2024-02-26T01:05:49;19.03;;;18.91;;
23573;SDS011;11965;53.640;10.050;2024-02-26T01:08:16;18.72;;;18.70;;
23573;SDS011;11965;53.640;10.050;2024-02-26T01:10:44;19.62;;;19.38;;
23573;SDS011;11965;53.640;10.050;2024-02-26T01:13:12;20.75;;;20.64;;
23573;SDS011;11965;53.640;10.050;2024-02-26T01:15:39;18.91;;;18.91;;
23573;SDS011;11965;53.640;10.050;2024-02-26T01:18:06;18.72;;;18.65;;
23573;SDS011;11965;53.640;10.050;2024-02-26T01:20:33;19.30;;;19.27;;
23573;SDS011;11965;53.640;10.050;2024-02-26T01:23:02;20.71;;;20.56;;
23573;SDS011;11965;53.640;10.050;2024-02-26T01:25:29;20.31;;;20.31;;
23573;SDS011;11965;53.640;10.050;2024-02-26T01:27:58;19.99;;;19.83;;
23573;SDS011;11965;53.640;10.050;2024-02-26T01:30:25;19.71;;;19.53;;
23573;SDS011;11965;53.640;10.050;2024-02-26T01:32:52;19.22;;;19.21;;
23573;SDS011;11965;53.640;10.050;2024-02-26T01:35:19;20.15;;;20.03;;
23573;SDS011;11965;53.640;10.050;2024-02-26T01:37:47;19.50;;;19.43;;
23573;SDS011;11965;53.640;10.050;2024-02-26T01:40:14;19.86;;;19.67;;
23573;SDS011;11965;53.640;10.050;2024-02-26T01:42:43;20.11;;;20.05;;
23573;SDS011;11965;53.640;10.050;2024-02-26T01:45:13;19.21;;;19.14;;
23573;SDS011;11965;53.640;10.050;2024-02-26T01:47:48;19.30;;;19.26;;
23573;SDS011;11965;53.640;10.050;2024-02-26T01:50:17;19.15;;;19.15;;
23573;SDS011;11965;53.640;10.050;2024-02-26T01:52:44;18.88;;;18.88;;
23573;SDS011;11965;53.640;10.050;2024-02-26T01:55:12;19.34;;;19.31;;
23573;SDS011;11965;53.640;10.050;2024-02-26T01:57:40;19.67;;;19.56;;
23573;SDS011;11965;53.640;10.050;2024-02-26T02:00:10;20.80;;;20.65;;
23573;SDS011;11965;53.640;10.050;2024-02-26T02:02:41;19.44;;;19.42;;
23573;SDS011;11965;53.640;10.050;2024-02-26T02:05:12;19.66;;;19.65;;
23573;SDS011;11965;53.640;10.050;2024-02-26T02:07:43;19.88;;;19.87;;
23573;SDS011;11965;53.640;10.050;2024-02-26T02:10:11;19.70;;;19.53;;
23573;SDS011;11965;53.640;10.050;2024-02-26T02:12:40;19.38;;;19.01;;
23573;SDS011;11965;53.640;10.050;2024-02-26T02:15:07;19.57;;;19.57;;
23573;SDS011;11965;53.640;10.050;2024-02-26T02:17:37;20.26;;;20.12;;
23573;SDS011;11965;53.640;10.050;2024-02-26T02:20:05;19.38;;;19.38;;
23573;SDS011;11965;53.640;10.050;2024-02-26T02:22:36;18.72;;;18.72;;
23573;SDS011;11965;53.640;10.050;2024-02-26T02:25:04;19.60;;;19.60;;
23573;SDS011;11965;53.640;10.050;2024-02-26T02:27:32;19.66;;;19.62;;
23573;SDS011;11965;53.640;10.050;2024-02-26T02:29:59;19.34;;;19.32;;
23573;SDS011;11965;53.640;10.050;2024-02-26T02:32:27;20.52;;;20.38;;
23573;SDS011;11965;53.640;10.050;2024-02-26T02:34:55;18.80;;;18.77;;
23573;SDS011;11965;53.640;10.050;2024-02-26T02:37:23;19.43;;;19.43;;
23573;SDS011;11965;53.640;10.050;2024-02-26T02:39:52;19.73;;;19.72;;
23573;SDS011;11965;53.640;10.050;2024-02-26T02:42:20;19.92;;;19.86;;
23573;SDS011;11965;53.640;10.050;2024-02-26T02:44:47;19.33;;;19.31;;
23573;SDS011;11965;53.640;10.050;2024-02-26T02:47:14;18.93;;;18.93;;
23573;SDS011;11965;53.640;10.050;2024-02-26T02:49:41;19.68;;;19.66;;
23573;SDS011;11965;53.640;10.050;2024-02-26T02:52:08;19.81;;;19.81;;
23573;SDS011;11965;53.640;10.050;2024-02-26T02:54:35;19.69;;;19.69;;
23573;SDS011;11965;53.640;10.050;2024-02-26T02:57:07;20.56;;;20.52;;
23573;SDS011;11965;53.640;10.050;2024-02-26T02:59:34;20.99;;;20.92;;
23573;SDS011;11965;53.640;10.050;2024-02-26T03:02:02;20.02;;;20.00;;
23573;SDS011;11965;53.640;10.050;2024-02-26T03:04:29;20.89;;;20.81;;
23573;SDS011;11965;53.640;10.050;2024-02-26T03:06:56;21.24;;;21.24;;
23573;SDS011;11965;53.640;10.050;2024-02-26T03:09:23;21.75;;;21.63;;
23573;SDS011;11965;53.640;10.050;2024-02-26T03:11:50;21.60;;;21.54;;
23573;SDS011;11965;53.640;10.050;2024-02-26T03:14:18;21.71;;;21.71;;
23573;SDS011;11965;53.640;10.050;2024-02-26T03:16:46;22.16;;;21.78;;
23573;SDS011;11965;53.640;10.050;2024-02-26T03:19:14;21.68;;;21.18;;
23573;SDS011;11965;53.640;10.050;2024-02-26T03:21:41;22.29;;;22.17;;
23573;SDS011;11965;53.640;10.050;2024-02-26T03:24:08;21.88;;;21.77;;
23573;SDS011;11965;53.640;10.050;2024-02-26T03:26:35;22.90;;;22.53;;
23573;SDS011;11965;53.640;10.050;2024-02-26T03:29:02;22.65;;;22.57;;
23573;SDS011;11965;53.640;10.050;2024-02-26T03:31:31;22.12;;;22.08;;
23573;SDS011;11965;53.640;10.050;2024-02-26T03:33:58;23.58;;;23.34;;
23573;SDS011;11965;53.640;10.050;2024-02-26T03:36:25;23.00;;;22.28;;
23573;SDS011;11965;53.640;10.050;2024-02-26T03:38:52;21.86;;;21.78;;
23573;SDS011;11965;53.640;10.050;2024-02-26T03:41:19;21.99;;;21.99;;
23573;SDS011;11965;53.640;10.050;2024-02-26T03:43:46;23.69;;;23.23;;
23573;SDS011;11965;53.640;10.050;2024-02-26T03:46:13;23.69;;;23.40;;
23573;SDS011;11965;53.640;10.050;2024-02-26T03:48:42;24.19;;;23.89;;
23573;SDS011;11965;53.640;10.050;2024-02-26T03:51:09;24.36;;;23.99;;
23573;SDS011;11965;53.640;10.050;2024-02-26T03:53:38;23.24;;;22.88;;
23573;SDS011;11965;53.640;10.050;2024-02-26T03:56:06;23.17;;;22.90;;
23573;SDS011;11965;53.640;10.050;2024-02-26T03:58:33;22.70;;;22.64;;
23573;SDS011;11965;53.640;10.050;2024-02-26T04:01:00;23.52;;;23.10;;
23573;SDS011;11965;53.640;10.050;2024-02-26T04:03:27;23.10;;;22.62;;
23573;SDS011;11965;53.640;10.050;2024-02-26T04:05:56;22.66;;;22.51;;
23573;SDS011;11965;53.640;10.050;2024-02-26T04:08:23;23.83;;;23.49;;
23573;SDS011;11965;53.640;10.050;2024-02-26T04:10:50;23.83;;;23.56;;
23573;SDS011;11965;53.640;10.050;2024-02-26T04:13:17;23.26;;;23.16;;
23573;SDS011;11965;53.640;10.050;2024-02-26T04:15:45;23.33;;;23.01;;
23573;SDS011;11965;53.640;10.050;2024-02-26T04:18:12;23.44;;;23.10;;
23573;SDS011;11965;53.640;10.050;2024-02-26T04:20:40;22.89;;;22.71;;
23573;SDS011;11965;53.640;10.050;2024-02-26T04:23:09;23.09;;;23.07;;
23573;SDS011;11965;53.640;10.050;2024-02-26T04:25:36;23.06;;;22.95;;
23573;SDS011;11965;53.640;10.050;2024-02-26T04:28:03;23.45;;;23.42;;
23573;SDS011;11965;53.640;10.050;2024-02-26T04:30:31;22.56;;;22.26;;
23573;SDS011;11965;53.640;10.050;2024-02-26T04:32:58;23.09;;;22.55;;
23573;SDS011;11965;53.640;10.050;2024-02-26T04:35:25;22.73;;;22.19;;
23573;SDS011;11965;53.640;10.050;2024-02-26T04:37:52;23.29;;;22.70;;
23573;SDS011;11965;53.640;10.050;2024-02-26T04:40:22;22.52;;;22.19;;
23573;SDS011;11965;53.640;10.050;2024-02-26T04:42:50;22.23;;;22.00;;
23573;SDS011;11965;53.640;10.050;2024-02-26T04:45:17;23.49;;;23.13;;
23573;SDS011;11965;53.640;10.050;2024-02-26T04:47:44;24.92;;;24.12;;
23573;SDS011;11965;53.640;10.050;2024-02-26T04:50:12;23.20;;;22.98;;
23573;SDS011;11965;53.640;10.050;2024-02-26T04:52:39;23.04;;;22.72;;
23573;SDS011;11965;53.640;10.050;2024-02-26T04:55:06;23.23;;;23.07;;
23573;SDS011;11965;53.640;10.050;2024-02-26T04:57:35;23.89;;;23.40;;
23573;SDS011;11965;53.640;10.050;2024-02-26T05:00:02;24.04;;;23.53;;
23573;SDS011;11965;53.640;10.050;2024-02-26T05:02:30;22.59;;;22.36;;
23573;SDS011;11965;53.640;10.050;2024-02-26T05:04:59;23.10;;;22.86;;
23573;SDS011;11965;53.640;10.050;2024-02-26T05:07:26;22.60;;;21.99;;
23573;SDS011;11965;53.640;10.050;2024-02-26T05:09:53;22.96;;;22.55;;
23573;SDS011;11965;53.640;10.050;2024-02-26T05:12:21;22.20;;;22.09;;
23573;SDS011;11965;53.640;10.050;2024-02-26T05:14:50;22.99;;;22.73;;
23573;SDS011;11965;53.640;10.050;2024-02-26T05:17:17;21.92;;;21.63;;
23573;SDS011;11965;53.640;10.050;2024-02-26T05:19:45;22.23;;;21.28;;
23573;SDS011;11965;53.640;10.050;2024-02-26T05:22:14;23.23;;;22.31;;
23573;SDS011;11965;53.640;10.050;2024-02-26T05:24:42;22.01;;;21.80;;
23573;SDS011;11965;53.640;10.050;2024-02-26T05:27:09;22.52;;;22.52;;
23573;SDS011;11965;53.640;10.050;2024-02-26T05:29:37;23.52;;;23.28;;
23573;SDS011;11965;53.640;10.050;2024-02-26T05:32:11;22.67;;;22.46;;
23573;SDS011;11965;53.640;10.050;2024-02-26T05:34:38;23.51;;;23.25;;
23573;SDS011;11965;53.640;10.050;2024-02-26T05:37:06;23.00;;;22.86;;
23573;SDS011;11965;53.640;10.050;2024-02-26T05:39:34;21.98;;;21.75;;
23573;SDS011;11965;53.640;10.050;2024-02-26T05:42:01;22.26;;;21.98;;
23573;SDS011;11965;53.640;10.050;2024-02-26T05:44:28;22.66;;;22.16;;
23573;SDS011;11965;53.640;10.050;2024-02-26T05:46:55;22.28;;;21.76;;
23573;SDS011;11965;53.640;10.050;2024-02-26T05:49:24;21.72;;;21.23;;
23573;SDS011;11965;53.640;10.050;2024-02-26T05:51:51;22.13;;;21.97;;
23573;SDS011;11965;53.640;10.050;2024-02-26T05:54:18;22.59;;;22.21;;
23573;SDS011;11965;53.640;10.050;2024-02-26T05:56:45;22.23;;;22.04;;
23573;SDS011;11965;53.640;10.050;2024-02-26T05:59:12;23.84;;;22.88;;
23573;SDS011;11965;53.640;10.050;2024-02-26T06:01:40;22.31;;;22.04;;
23573;SDS011;11965;53.640;10.050;2024-02-26T06:04:07;22.62;;;22.51;;
23573;SDS011;11965;53.640;10.050;2024-02-26T06:06:36;22.38;;;22.19;;
23573;SDS011;11965;53.640;10.050;2024-02-26T06:09:02;21.31;;;21.14;;
23573;SDS011;11965;53.640;10.050;2024-02-26T06:11:30;21.07;;;20.94;;
23573;SDS011;11965;53.640;10.050;2024-02-26T06:13:57;21.27;;;21.15;;
23573;SDS011;11965;53.640;10.050;2024-02-26T06:16:25;21.22;;;21.18;;
23573;SDS011;11965;53.640;10.050;2024-02-26T06:18:51;22.80;;;22.24;;
23573;SDS011;11965;53.640;10.050;2024-02-26T06:21:18;22.17;;;22.00;;
23573;SDS011;11965;53.640;10.050;2024-02-26T06:23:47;23.05;;;22.51;;
23573;SDS011;11965;53.640;10.050;2024-02-26T06:26:14;22.23;;;22.02;;
23573;SDS011;11965;53.640;10.050;2024-02-26T06:31:42;21.92;;;21.74;;
23573;SDS011;11965;53.640;10.050;2024-02-26T06:34:09;21.21;;;21.13;;
23573;SDS011;11965;53.640;10.050;2024-02-26T06:36:36;22.36;;;21.74;;
23573;SDS011;11965;53.640;10.050;2024-02-26T06:39:05;22.19;;;21.94;;
23573;SDS011;11965;53.640;10.050;2024-02-26T06:41:33;23.17;;;22.69;;
23573;SDS011;11965;53.640;10.050;2024-02-26T06:44:01;21.51;;;21.27;;
23573;SDS011;11965;53.640;10.050;2024-02-26T06:46:28;20.99;;;20.78;;
23573;SDS011;11965;53.640;10.050;2024-02-26T06:48:56;21.04;;;21.02;;
23573;SDS011;11965;53.640;10.050;2024-02-26T06:51:23;21.37;;;21.30;;
23573;SDS011;11965;53.640;10.050;2024-02-26T06:53:50;21.35;;;21.12;;
23573;SDS011;11965;53.640;10.050;2024-02-26T06:56:19;23.38;;;22.65;;
23573;SDS011;11965;53.640;10.050;2024-02-26T06:58:46;21.38;;;21.32;;
23573;SDS011;11965;53.640;10.050;2024-02-26T07:01:13;21.86;;;21.84;;
23573;SDS011;11965;53.640;10.050;2024-02-26T07:03:40;21.89;;;21.51;;
23573;SDS011;11965;53.640;10.050;2024-02-26T07:06:08;21.03;;;20.89;;
23573;SDS011;11965;53.640;10.050;2024-02-26T07:08:35;21.29;;;20.95;;
23573;SDS011;11965;53.640;10.050;2024-02-26T07:11:02;22.75;;;22.51;;
23573;SDS011;11965;53.640;10.050;2024-02-26T07:13:34;22.85;;;22.39;;
23573;SDS011;11965;53.640;10.050;2024-02-26T07:16:01;22.17;;;21.71;;
23573;SDS011;11965;53.640;10.050;2024-02-26T07:18:29;22.54;;;22.15;;
23573;SDS011;11965;53.640;10.050;2024-02-26T07:20:56;22.31;;;22.18;;
23573;SDS011;11965;53.640;10.050;2024-02-26T07:23:23;22.04;;;21.86;;
23573;SDS011;11965;53.640;10.050;2024-02-26T07:25:50;22.23;;;22.14;;
23573;SDS011;11965;53.640;10.050;2024-02-26T07:28:18;22.67;;;22.50;;
23573;SDS011;11965;53.640;10.050;2024-02-26T07:30:47;23.06;;;22.75;;
23573;SDS011;11965;53.640;10.050;2024-02-26T07:33:14;23.45;;;22.81;;
23573;SDS011;11965;53.640;10.050;2024-02-26T07:35:41;23.20;;;23.09;;
23573;SDS011;11965;53.640;10.050;2024-02-26T07:38:08;23.42;;;23.13;;
23573;SDS011;11965;53.640;10.050;2024-02-26T07:40:35;23.48;;;23.31;;
23573;SDS011;11965;53.640;10.050;2024-02-26T07:43:02;24.90;;;24.27;;
23573;SDS011;11965;53.640;10.050;2024-02-26T07:45:30;24.13;;;23.77;;
23573;SDS011;11965;53.640;10.050;2024-02-26T07:47:58;24.34;;;24.10;;
23573;SDS011;11965;53.640;10.050;2024-02-26T07:50:25;24.26;;;23.62;;
23573;SDS011;11965;53.640;10.050;2024-02-26T07:52:52;24.39;;;23.73;;
23573;SDS011;11965;53.640;10.050;2024-02-26T07:55:19;24.17;;;24.00;;
23573;SDS011;11965;53.640;10.050;2024-02-26T07:57:47;25.09;;;24.58;;
23573;SDS011;11965;53.640;10.050;2024-02-26T08:00:15;25.47;;;24.66;;
23573;SDS011;11965;53.640;10.050;2024-02-26T08:02:43;25.15;;;24.38;;
23573;SDS011;11965;53.640;10.050;2024-02-26T08:05:11;24.39;;;23.92;;
23573;SDS011;11965;53.640;10.050;2024-02-26T08:07:39;24.33;;;23.85;;
23573;SDS011;11965;53.640;10.050;2024-02-26T08:10:06;24.64;;;24.09;;
23573;SDS011;11965;53.640;10.050;2024-02-26T08:12:34;24.67;;;23.82;;
23573;SDS011;11965;53.640;10.050;2024-02-26T08:15:01;24.05;;;23.26;;
23573;SDS011;11965;53.640;10.050;2024-02-26T08:17:28;23.62;;;23.09;;
23573;SDS011;11965;53.640;10.050;2024-02-26T08:19:55;24.34;;;23.62;;
23573;SDS011;11965;53.640;10.050;2024-02-26T08:22:24;23.55;;;23.00;;
23573;SDS011;11965;53.640;10.050;2024-02-26T08:24:51;23.61;;;23.22;;
23573;SDS011;11965;53.640;10.050;2024-02-26T08:27:18;24.15;;;23.92;;
23573;SDS011;11965;53.640;10.050;2024-02-26T08:29:45;23.22;;;22.70;;
23573;SDS011;11965;53.640;10.050;2024-02-26T08:32:11;22.51;;;22.35;;
23573;SDS011;11965;53.640;10.050;2024-02-26T08:34:38;23.52;;;23.12;;
23573;SDS011;11965;53.640;10.050;2024-02-26T08:37:05;22.84;;;22.36;;
23573;SDS011;11965;53.640;10.050;2024-02-26T08:39:34;23.30;;;22.93;;
23573;SDS011;11965;53.640;10.050;2024-02-26T08:42:01;23.03;;;22.46;;
23573;SDS011;11965;53.640;10.050;2024-02-26T08:44:28;22.81;;;22.15;;
23573;SDS011;11965;53.640;10.050;2024-02-26T08:46:55;23.00;;;22.27;;
23573;SDS011;11965;53.640;10.050;2024-02-26T08:49:22;22.90;;;22.21;;
23573;SDS011;11965;53.640;10.050;2024-02-26T08:51:49;22.76;;;22.21;;
23573;SDS011;11965;53.640;10.050;2024-02-26T08:54:16;23.34;;;22.76;;
23573;SDS011;11965;53.640;10.050;2024-02-26T08:56:44;23.95;;;23.19;;
23573;SDS011;11965;53.640;10.050;2024-02-26T08:59:11;24.34;;;23.61;;
23573;SDS011;11965;53.640;10.050;2024-02-26T09:01:41;24.87;;;24.12;;
23573;SDS011;11965;53.640;10.050;2024-02-26T09:04:08;25.03;;;24.14;;
23573;SDS011;11965;53.640;10.050;2024-02-26T09:06:35;24.35;;;23.70;;
23573;SDS011;11965;53.640;10.050;2024-02-26T09:09:02;25.08;;;24.15;;
23573;SDS011;11965;53.640;10.050;2024-02-26T09:11:29;25.26;;;24.37;;
23573;SDS011;11965;53.640;10.050;2024-02-26T09:13:58;26.20;;;25.12;;
23573;SDS011;11965;53.640;10.050;2024-02-26T09:16:25;26.27;;;25.36;;
23573;SDS011;11965;53.640;10.050;2024-02-26T09:18:52;26.78;;;25.81;;
23573;SDS011;11965;53.640;10.050;2024-02-26T09:21:19;26.95;;;26.08;;
23573;SDS011;11965;53.640;10.050;2024-02-26T09:23:48;27.16;;;26.18;;
23573;SDS011;11965;53.640;10.050;2024-02-26T09:26:15;26.84;;;25.76;;
23573;SDS011;11965;53.640;10.050;2024-02-26T09:28:42;26.86;;;25.93;;
23573;SDS011;11965;53.640;10.050;2024-02-26T09:31:11;27.16;;;26.13;;
23573;SDS011;11965;53.640;10.050;2024-02-26T09:33:41;27.17;;;26.35;;
23573;SDS011;11965;53.640;10.050;2024-02-26T09:36:08;26.50;;;25.47;;
23573;SDS011;11965;53.640;10.050;2024-02-26T09:38:36;26.39;;;25.39;;
23573;SDS011;11965;53.640;10.050;2024-02-26T09:41:05;26.11;;;25.25;;
23573;SDS011;11965;53.640;10.050;2024-02-26T09:43:34;26.52;;;25.62;;
23573;SDS011;11965;53.640;10.050;2024-02-26T09:46:03;27.41;;;26.45;;
23573;SDS011;11965;53.640;10.050;2024-02-26T09:48:32;26.88;;;26.01;;
23573;SDS011;11965;53.640;10.050;2024-02-26T09:51:02;26.75;;;25.80;;
23573;SDS011;11965;53.640;10.050;2024-02-26T09:53:30;27.87;;;26.82;;
23573;SDS011;11965;53.640;10.050;2024-02-26T09:55:58;27.37;;;26.23;;
23573;SDS011;11965;53.640;10.050;2024-02-26T09:58:28;27.32;;;26.49;;
23573;SDS011;11965;53.640;10.050;2024-02-26T10:00:56;26.89;;;26.04;;
23573;SDS011;11965;53.640;10.050;2024-02-26T10:03:30;27.35;;;26.36;;
23573;SDS011;11965;53.640;10.050;2024-02-26T10:06:05;28.03;;;26.62;;
23573;SDS011;11965;53.640;10.050;2024-02-26T10:08:34;26.98;;;25.76;;
23573;SDS011;11965;53.640;10.050;2024-02-26T10:11:02;27.23;;;26.04;;
23573;SDS011;11965;53.640;10.050;2024-02-26T10:13:29;26.69;;;25.44;;
23573;SDS011;11965;53.640;10.050;2024-02-26T10:15:56;26.86;;;25.90;;
23573;SDS011;11965;53.640;10.050;2024-02-26T10:18:24;26.81;;;25.98;;
23573;SDS011;11965;53.640;10.050;2024-02-26T10:21:01;26.56;;;25.72;;
23573;SDS011;11965;53.640;10.050;2024-02-26T10:23:28;27.09;;;25.91;;
23573;SDS011;11965;53.640;10.050;2024-02-26T10:25:55;27.29;;;26.11;;
23573;SDS011;11965;53.640;10.050;2024-02-26T10:28:22;27.08;;;25.96;;
23573;SDS011;11965;53.640;10.050;2024-02-26T10:30:50;26.63;;;25.45;;
23573;SDS011;11965;53.640;10.050;2024-02-26T10:33:18;25.63;;;24.82;;
23573;SDS011;11965;53.640;10.050;2024-02-26T10:35:45;26.05;;;25.02;;
23573;SDS011;11965;53.640;10.050;2024-02-26T10:38:14;26.65;;;25.74;;
23573;SDS011;11965;53.640;10.050;2024-02-26T10:40:45;26.65;;;25.73;;
23573;SDS011;11965;53.640;10.050;2024-02-26T10:43:12;27.55;;;26.29;;
23573;SDS011;11965;53.640;10.050;2024-02-26T10:45:40;26.80;;;25.83;;
23573;SDS011;11965;53.640;10.050;2024-02-26T10:48:09;26.52;;;25.51;;
23573;SDS011;11965;53.640;10.050;2024-02-26T10:50:38;25.94;;;24.81;;
23573;SDS011;11965;53.640;10.050;2024-02-26T10:53:05;25.70;;;24.64;;
23573;SDS011;11965;53.640;10.050;2024-02-26T10:55:41;25.64;;;24.69;;
23573;SDS011;11965;53.640;10.050;2024-02-26T10:58:12;24.41;;;23.61;;
23573;SDS011;11965;53.640;10.050;2024-02-26T11:00:41;24.24;;;23.19;;
23573;SDS011;11965;53.640;10.050;2024-02-26T11:03:09;25.10;;;24.20;;
23573;SDS011;11965;53.640;10.050;2024-02-26T11:05:39;24.06;;;23.16;;
23573;SDS011;11965;53.640;10.050;2024-02-26T11:08:08;23.94;;;22.96;;
23573;SDS011;11965;53.640;10.050;2024-02-26T11:10:37;23.78;;;22.83;;
23573;SDS011;11965;53.640;10.050;2024-02-26T11:13:09;24.09;;;22.85;;
23573;SDS011;11965;53.640;10.050;2024-02-26T11:15:40;22.55;;;21.92;;
23573;SDS011;11965;53.640;10.050;2024-02-26T11:18:09;22.20;;;21.52;;
23573;SDS011;11965;53.640;10.050;2024-02-26T11:20:38;22.22;;;21.55;;
23573;SDS011;11965;53.640;10.050;2024-02-26T11:23:08;21.67;;;20.91;;
23573;SDS011;11965;53.640;10.050;2024-02-26T11:25:35;21.47;;;20.79;;
23573;SDS011;11965;53.640;10.050;2024-02-26T11:28:05;20.06;;;19.47;;
23573;SDS011;11965;53.640;10.050;2024-02-26T11:30:41;20.47;;;19.73;;
23573;SDS011;11965;53.640;10.050;2024-02-26T11:33:12;19.64;;;19.18;;
23573;SDS011;11965;53.640;10.050;2024-02-26T11:35:41;20.20;;;19.48;;
23573;SDS011;11965;53.640;10.050;2024-02-26T11:38:08;20.24;;;19.50;;
23573;SDS011;11965;53.640;10.050;2024-02-26T11:40:46;20.01;;;19.53;;
23573;SDS011;11965;53.640;10.050;2024-02-26T11:43:15;19.93;;;19.34;;
23573;SDS011;11965;53.640;10.050;2024-02-26T11:45:49;19.95;;;19.55;;
23573;SDS011;11965;53.640;10.050;2024-02-26T11:48:19;20.62;;;20.09;;
23573;SDS011;11965;53.640;10.050;2024-02-26T11:50:48;21.01;;;20.33;;
23573;SDS011;11965;53.640;10.050;2024-02-26T11:53:23;21.03;;;20.51;;
23573;SDS011;11965;53.640;10.050;2024-02-26T11:58:49;21.14;;;20.39;;
23573;SDS011;11965;53.640;10.050;2024-02-26T12:01:42;20.74;;;20.06;;
23573;SDS011;11965;53.640;10.050;2024-02-26T12:04:14;21.22;;;20.49;;
23573;SDS011;11965;53.640;10.050;2024-02-26T12:06:45;20.11;;;19.70;;
23573;SDS011;11965;53.640;10.050;2024-02-26T12:12:00;20.63;;;20.44;;
23573;SDS011;11965;53.640;10.050;2024-02-26T12:14:32;21.04;;;20.43;;
23573;SDS011;11965;53.640;10.050;2024-02-26T12:17:00;20.41;;;20.14;;
23573;SDS011;11965;53.640;10.050;2024-02-26T12:19:27;19.36;;;18.89;;
23573;SDS011;11965;53.640;10.050;2024-02-26T12:21:55;20.05;;;19.33;;
23573;SDS011;11965;53.640;10.050;2024-02-26T12:24:21;19.74;;;19.26;;
23573;SDS011;11965;53.640;10.050;2024-02-26T12:26:49;19.04;;;18.59;;
23573;SDS011;11965;53.640;10.050;2024-02-26T12:29:16;20.21;;;19.49;;
23573;SDS011;11965;53.640;10.050;2024-02-26T12:31:46;20.15;;;19.41;;
23573;SDS011;11965;53.640;10.050;2024-02-26T12:34:14;20.41;;;19.72;;
23573;SDS011;11965;53.640;10.050;2024-02-26T12:36:42;20.98;;;20.54;;
23573;SDS011;11965;53.640;10.050;2024-02-26T12:39:09;20.71;;;20.18;;
23573;SDS011;11965;53.640;10.050;2024-02-26T12:41:37;19.67;;;19.22;;
23573;SDS011;11965;53.640;10.050;2024-02-26T12:44:05;19.28;;;18.70;;
23573;SDS011;11965;53.640;10.050;2024-02-26T12:46:34;19.12;;;18.43;;
23573;SDS011;11965;53.640;10.050;2024-02-26T12:49:02;18.54;;;17.99;;
23573;SDS011;11965;53.640;10.050;2024-02-26T12:51:29;18.93;;;18.39;;
23573;SDS011;11965;53.640;10.050;2024-02-26T12:53:57;18.53;;;18.05;;
23573;SDS011;11965;53.640;10.050;2024-02-26T12:56:24;18.49;;;17.78;;
23573;SDS011;11965;53.640;10.050;2024-02-26T12:58:54;18.35;;;17.47;;
23573;SDS011;11965;53.640;10.050;2024-02-26T13:01:22;18.45;;;17.90;;
23573;SDS011;11965;53.640;10.050;2024-02-26T13:03:51;19.76;;;18.99;;
23573;SDS011;11965;53.640;10.050;2024-02-26T13:06:21;20.04;;;19.39;;
23573;SDS011;11965;53.640;10.050;2024-02-26T13:08:48;18.70;;;18.37;;
23573;SDS011;11965;53.640;10.050;2024-02-26T13:11:16;19.51;;;19.01;;
23573;SDS011;11965;53.640;10.050;2024-02-26T13:13:47;20.18;;;19.44;;
23573;SDS011;11965;53.640;10.050;2024-02-26T13:16:14;20.28;;;19.73;;
23573;SDS011;11965;53.640;10.050;2024-02-26T13:18:42;21.11;;;20.36;;
23573;SDS011;11965;53.640;10.050;2024-02-26T13:21:10;21.11;;;20.46;;
23573;SDS011;11965;53.640;10.050;2024-02-26T13:23:40;20.89;;;20.33;;
23573;SDS011;11965;53.640;10.050;2024-02-26T13:26:08;20.88;;;20.15;;
23573;SDS011;11965;53.640;10.050;2024-02-26T13:28:38;21.74;;;20.94;;
23573;SDS011;11965;53.640;10.050;2024-02-26T13:31:05;21.34;;;20.71;;
23573;SDS011;11965;53.640;10.050;2024-02-26T13:33:33;21.48;;;20.85;;
23573;SDS011;11965;53.640;10.050;2024-02-26T13:36:00;21.60;;;20.87;;
23573;SDS011;11965;53.640;10.050;2024-02-26T13:38:28;21.43;;;20.66;;
23573;SDS011;11965;53.640;10.050;2024-02-26T13:40:55;21.38;;;20.64;;
23573;SDS011;11965;53.640;10.050;2024-02-26T13:43:22;20.75;;;20.14;;
23573;SDS011;11965;53.640;10.050;2024-02-26T13:45:49;20.81;;;20.07;;
23573;SDS011;11965;53.640;10.050;2024-02-26T13:48:16;20.77;;;20.09;;
23573;SDS011;11965;53.640;10.050;2024-02-26T13:50:43;20.86;;;20.10;;
23573;SDS011;11965;53.640;10.050;2024-02-26T13:53:11;20.74;;;20.05;;
23573;SDS011;11965;53.640;10.050;2024-02-26T13:55:39;20.59;;;19.91;;
23573;SDS011;11965;53.640;10.050;2024-02-26T13:58:11;20.67;;;19.86;;
23573;SDS011;11965;53.640;10.050;2024-02-26T14:00:39;21.46;;;20.41;;
23573;SDS011;11965;53.640;10.050;2024-02-26T14:03:07;20.90;;;20.24;;
23573;SDS011;11965;53.640;10.050;2024-02-26T14:05:34;21.17;;;20.27;;
23573;SDS011;11965;53.640;10.050;2024-02-26T14:08:01;20.54;;;19.95;;
23573;SDS011;11965;53.640;10.050;2024-02-26T14:10:28;21.86;;;20.94;;
23573;SDS011;11965;53.640;10.050;2024-02-26T14:12:57;21.12;;;20.29;;
23573;SDS011;11965;53.640;10.050;2024-02-26T14:15:27;21.34;;;20.47;;
23573;SDS011;11965;53.640;10.050;2024-02-26T14:17:55;21.01;;;20.19;;
23573;SDS011;11965;53.640;10.050;2024-02-26T14:20:22;21.30;;;20.78;;
23573;SDS011;11965;53.640;10.050;2024-02-26T14:22:50;21.00;;;20.48;;